Time;durP1;ratioP1;P1;durP2;ratioP2;P2;SDS_P1;SDS_P2;PMS_P1;PMS_P2;Temp;Humidity;BMP_temperature;BMP_pressure;BME280_temperature;BME280_humidity;BME280_pressure;Samples;Min_cycle;Max_cycle;Signal;HPM_P1;HPM_P2
2023/03/08 00:01:21;;;;;;;;;;;11.20;99.90;;;;;;5141897;27;19918;-68
2023/03/08 00:03:50;;;;;;;;;;;11.20;99.90;;;;;;5142389;27;19911;-69
2023/03/08 00:06:15;;;;;;;;;;;11.20;99.90;;;;;;5141629;27;19943;-69
2023/03/08 00:08:41;;;;;;;;;;;11.30;99.90;;;;;;5123126;27;19914;-70
2023/03/08 00:11:07;;;;;;;;;;;11.20;99.90;;;;;;5141616;27;20362;-69
2023/03/08 00:13:33;;;;;;;;;;;11.30;99.90;;;;;;5141326;27;19919;-69
2023/03/08 00:16:03;;;;;;;;;;;11.30;99.90;;;;;;5141613;27;19908;-69
2023/03/08 00:18:29;;;;;;;;;;;11.30;99.90;;;;;;5141380;27;19908;-69
2023/03/08 00:20:59;;;;;;;;;;;11.40;99.90;;;;;;5141542;27;19914;-69
2023/03/08 00:23:24;;;;;;;;;;;11.40;99.90;;;;;;5141415;27;20366;-69
2023/03/08 00:25:51;;;;;;;;;;;11.40;99.90;;;;;;5141529;27;19914;-69
2023/03/08 00:28:16;;;;;;;;;;;11.40;99.90;;;;;;5141359;27;20010;-69
2023/03/08 00:30:42;;;;;;;;;;;11.40;99.90;;;;;;5141388;27;19919;-69
2023/03/08 00:33:07;;;;;;;;;;;11.40;99.90;;;;;;5140658;27;19912;-69
2023/03/08 00:35:33;;;;;;;;;;;11.50;99.90;;;;;;5141272;27;19914;-69
2023/03/08 00:37:58;;;;;;;;;;;11.40;99.90;;;;;;5140890;27;19954;-69
2023/03/08 00:40:24;;;;;;;;;;;11.40;99.90;;;;;;5141188;27;19907;-69
2023/03/08 00:42:50;;;;;;;;;;;11.40;99.90;;;;;;5140802;27;20278;-68
2023/03/08 00:45:15;;;;;;;;;;;11.40;99.90;;;;;;5141079;27;19914;-68
2023/03/08 00:47:41;;;;;;;;;;;11.50;99.90;;;;;;5140878;27;19955;-68
2023/03/08 00:50:07;;;;;;;;;;;11.50;99.90;;;;;;5140627;27;19914;-68
2023/03/08 00:52:32;;;;;;;;;;;11.50;99.90;;;;;;5140853;27;20005;-68
2023/03/08 00:54:58;;;;;;;;;;;11.60;99.90;;;;;;5140665;27;19938;-68
2023/03/08 00:57:24;;;;;;;;;;;11.70;99.90;;;;;;5140792;27;19908;-68
2023/03/08 00:59:49;;;;;;;;;;;11.60;99.90;;;;;;5140980;27;20002;-68
2023/03/08 01:02:15;;;;;;;;;;;11.60;99.90;;;;;;5140478;27;20279;-68
2023/03/08 01:04:40;;;;;;;;;;;11.50;99.90;;;;;;5140546;27;19908;-67
2023/03/08 01:07:06;;;;;;;;;;;11.50;99.90;;;;;;5140131;27;19911;-68
2023/03/08 01:09:32;;;;;;;;;;;11.50;99.90;;;;;;5140205;27;19907;-67
2023/03/08 01:11:57;;;;;;;;;;;11.40;99.90;;;;;;5140465;27;20322;-67
2023/03/08 01:14:23;;;;;;;;;;;11.40;99.90;;;;;;5140167;27;20366;-67
2023/03/08 01:16:48;;;;;;;;;;;11.40;99.90;;;;;;5140151;27;19908;-67
2023/03/08 01:19:14;;;;;;;;;;;11.40;99.90;;;;;;5140301;27;20364;-67
2023/03/08 01:21:40;;;;;;;;;;;11.40;99.90;;;;;;5140346;27;19908;-67
2023/03/08 01:24:05;;;;;;;;;;;11.40;99.90;;;;;;5140319;27;19908;-67
2023/03/08 01:26:31;;;;;;;;;;;11.30;99.90;;;;;;5121517;27;19965;-67
2023/03/08 01:28:57;;;;;;;;;;;11.30;99.90;;;;;;5139939;27;19927;-67
2023/03/08 01:31:26;;;;;;;;;;;11.30;99.90;;;;;;5139825;27;19915;-67
2023/03/08 01:33:52;;;;;;;;;;;11.30;99.90;;;;;;5139448;27;20385;-67
2023/03/08 01:36:19;;;;;;;;;;;11.30;99.90;;;;;;5140032;27;19907;-67
2023/03/08 01:38:45;;;;;;;;;;;11.30;99.90;;;;;;5140020;27;19915;-67
2023/03/08 01:41:17;;;;;;;;;;;11.30;99.90;;;;;;5139666;27;19907;-66
2023/03/08 01:43:42;;;;;;;;;;;11.30;99.90;;;;;;5139489;27;20002;-66
2023/03/08 01:46:08;;;;;;;;;;;11.30;99.90;;;;;;5139371;27;19946;-66
2023/03/08 01:48:39;;;;;;;;;;;11.30;99.90;;;;;;5139399;27;19907;-66
2023/03/08 01:51:06;;;;;;;;;;;11.30;99.90;;;;;;5140018;27;19908;-66
2023/03/08 01:53:33;;;;;;;;;;;11.30;99.90;;;;;;5139297;27;20388;-66
2023/03/08 01:55:58;;;;;;;;;;;11.20;99.90;;;;;;5139877;27;19907;-66
2023/03/08 01:58:24;;;;;;;;;;;11.20;99.90;;;;;;5139843;27;19985;-66
2023/03/08 02:00:50;;;;;;;;;;;11.20;99.90;;;;;;5139580;27;19908;-66
2023/03/08 02:03:16;;;;;;;;;;;11.20;99.90;;;;;;5139260;27;19907;-66
2023/03/08 02:05:42;;;;;;;;;;;11.20;99.90;;;;;;5139278;27;19987;-66
2023/03/08 02:08:08;;;;;;;;;;;11.10;99.90;;;;;;5139349;27;19908;-66
2023/03/08 02:10:35;;;;;;;;;;;11.20;99.90;;;;;;5139472;27;20312;-66
2023/03/08 02:13:02;;;;;;;;;;;11.10;99.90;;;;;;5139334;27;19917;-66
2023/03/08 02:15:27;;;;;;;;;;;11.10;99.90;;;;;;5139335;27;19907;-66
2023/03/08 02:17:53;;;;;;;;;;;11.10;99.90;;;;;;5139322;27;19929;-66
2023/03/08 02:20:24;;;;;;;;;;;11.20;99.90;;;;;;5139588;27;19908;-66
2023/03/08 02:22:52;;;;;;;;;;;11.20;99.90;;;;;;5138874;27;20282;-66
2023/03/08 02:25:24;;;;;;;;;;;11.20;99.90;;;;;;5139251;27;19908;-66
2023/03/08 02:27:51;;;;;;;;;;;11.20;99.90;;;;;;5138881;27;19930;-66
2023/03/08 02:30:22;;;;;;;;;;;11.20;99.90;;;;;;5138855;27;20340;-66
2023/03/08 02:32:47;;;;;;;;;;;11.20;99.90;;;;;;5139335;27;20047;-66
2023/03/08 02:35:13;;;;;;;;;;;11.10;99.90;;;;;;5139135;28;19907;-66
2023/03/08 02:37:39;;;;;;;;;;;11.10;99.90;;;;;;5138761;28;19907;-65
2023/03/08 02:40:05;;;;;;;;;;;11.20;99.90;;;;;;5139250;28;19947;-66
2023/03/08 02:42:30;;;;;;;;;;;11.20;99.90;;;;;;5138846;28;20297;-65
2023/03/08 02:44:56;;;;;;;;;;;11.20;99.90;;;;;;5139266;28;20286;-65
2023/03/08 02:47:21;;;;;;;;;;;11.20;99.90;;;;;;5139036;28;19914;-65
2023/03/08 02:49:47;;;;;;;;;;;11.30;99.90;;;;;;5138939;28;19907;-65
2023/03/08 02:52:12;;;;;;;;;;;11.30;99.90;;;;;;5138842;28;19907;-65
2023/03/08 02:54:38;;;;;;;;;;;11.30;99.90;;;;;;5138711;28;20336;-65
2023/03/08 02:57:04;;;;;;;;;;;11.30;99.90;;;;;;5142091;27;19914;-65
2023/03/08 02:59:29;;;;;;;;;;;11.30;99.90;;;;;;5142801;27;19996;-65
2023/03/08 03:01:56;;;;;;;;;;;11.30;99.90;;;;;;5142645;27;19908;-65
2023/03/08 03:04:21;;;;;;;;;;;11.30;99.90;;;;;;5142727;27;19915;-65
2023/03/08 03:06:59;;;;;;;;;;;11.30;99.90;;;;;;5142704;27;19907;-65
2023/03/08 03:09:25;;;;;;;;;;;11.30;99.90;;;;;;5142874;27;20372;-65
2023/03/08 03:11:51;;;;;;;;;;;11.40;99.90;;;;;;5142847;27;19915;-65
2023/03/08 03:14:17;;;;;;;;;;;11.40;99.90;;;;;;5142562;27;19915;-65
2023/03/08 03:16:42;;;;;;;;;;;11.40;99.90;;;;;;5143038;27;20301;-65
2023/03/08 03:19:08;;;;;;;;;;;11.40;99.90;;;;;;5142491;27;20379;-65
2023/03/08 03:21:33;;;;;;;;;;;11.40;99.90;;;;;;5142749;27;19907;-65
2023/03/08 03:23:59;;;;;;;;;;;11.40;99.90;;;;;;5142569;27;19986;-65
2023/03/08 03:26:25;;;;;;;;;;;11.50;99.90;;;;;;5142258;27;20006;-65
2023/03/08 03:28:51;;;;;;;;;;;11.50;99.90;;;;;;5142308;27;19919;-65
2023/03/08 03:31:18;;;;;;;;;;;11.50;99.90;;;;;;5143153;27;19911;-65
2023/03/08 03:33:44;;;;;;;;;;;11.50;99.90;;;;;;5142233;27;19981;-65
2023/03/08 03:36:11;;;;;;;;;;;11.50;99.90;;;;;;5142391;27;19911;-65
2023/03/08 03:38:36;;;;;;;;;;;11.50;99.90;;;;;;5142054;27;19911;-65
2023/03/08 03:41:03;;;;;;;;;;;11.50;99.90;;;;;;5142493;27;19914;-65
2023/03/08 03:43:29;;;;;;;;;;;11.50;99.90;;;;;;5142209;27;19908;-65
2023/03/08 03:45:56;;;;;;;;;;;11.50;99.90;;;;;;5141823;27;19908;-65
2023/03/08 03:48:21;;;;;;;;;;;11.50;99.90;;;;;;5142328;27;19929;-65
2023/03/08 03:51:13;;;;;;;;;;;11.50;99.90;;;;;;5142169;27;20358;-64
2023/03/08 03:53:39;;;;;;;;;;;11.50;99.90;;;;;;5137421;27;19940;-64
2023/03/08 03:56:06;;;;;;;;;;;11.40;99.90;;;;;;5141931;27;20315;-64
2023/03/08 03:58:32;;;;;;;;;;;11.40;99.90;;;;;;5141642;27;19908;-64
2023/03/08 04:00:57;;;;;;;;;;;11.40;99.90;;;;;;5141556;27;19908;-65
2023/03/08 04:03:23;;;;;;;;;;;11.40;99.90;;;;;;5141613;27;19953;-64
2023/03/08 04:05:49;;;;;;;;;;;11.40;99.90;;;;;;5141439;27;19915;-64
2023/03/08 04:08:14;;;;;;;;;;;11.40;99.90;;;;;;5141285;27;19959;-64
2023/03/08 04:10:40;;;;;;;;;;;11.30;99.90;;;;;;5141742;27;19930;-64
2023/03/08 04:13:06;;;;;;;;;;;11.40;99.90;;;;;;5141570;27;19934;-64
2023/03/08 04:15:31;;;;;;;;;;;11.40;99.90;;;;;;5141424;27;20282;-64
2023/03/08 04:17:57;;;;;;;;;;;11.40;99.90;;;;;;5141340;27;19908;-64
2023/03/08 04:20:23;;;;;;;;;;;11.40;99.90;;;;;;5141463;27;19998;-64
2023/03/08 04:22:49;;;;;;;;;;;11.40;99.90;;;;;;5141007;27;19915;-64
2023/03/08 04:25:14;;;;;;;;;;;11.40;99.90;;;;;;5141196;27;19908;-64
2023/03/08 04:27:40;;;;;;;;;;;11.40;99.90;;;;;;5141266;27;19907;-64
2023/03/08 04:30:06;;;;;;;;;;;11.50;99.90;;;;;;5140894;27;20526;-64
2023/03/08 04:32:31;;;;;;;;;;;11.50;99.90;;;;;;5140996;27;19918;-64
2023/03/08 04:34:57;;;;;;;;;;;11.50;99.90;;;;;;5140923;27;20281;-64
2023/03/08 04:37:23;;;;;;;;;;;11.50;99.90;;;;;;5141185;27;19914;-64
2023/03/08 04:39:49;;;;;;;;;;;11.50;99.90;;;;;;5141111;27;19980;-64
2023/03/08 04:42:14;;;;;;;;;;;11.50;99.90;;;;;;5140788;27;19911;-64
2023/03/08 04:44:40;;;;;;;;;;;11.50;99.90;;;;;;5140830;27;20378;-64
2023/03/08 04:47:05;;;;;;;;;;;11.50;99.90;;;;;;5141108;27;19907;-64
2023/03/08 04:49:31;;;;;;;;;;;11.50;99.90;;;;;;5140700;27;20347;-64
2023/03/08 04:51:57;;;;;;;;;;;11.50;99.90;;;;;;5141128;27;19976;-64
2023/03/08 04:54:22;;;;;;;;;;;11.50;99.90;;;;;;5140600;27;19911;-64
2023/03/08 04:56:48;;;;;;;;;;;11.50;99.90;;;;;;5140340;27;19907;-64
2023/03/08 04:59:13;;;;;;;;;;;11.50;99.90;;;;;;5140505;27;19907;-63
2023/03/08 05:01:41;;;;;;;;;;;11.50;99.90;;;;;;5140693;27;19931;-63
2023/03/08 05:04:09;;;;;;;;;;;11.50;99.90;;;;;;5140202;27;19911;-64
2023/03/08 05:06:34;;;;;;;;;;;11.60;99.90;;;;;;5140305;27;19950;-63
2023/03/08 05:09:00;;;;;;;;;;;11.60;99.90;;;;;;5140251;27;19911;-63
2023/03/08 05:11:26;;;;;;;;;;;11.50;99.90;;;;;;5140427;27;19930;-63
2023/03/08 05:13:52;;;;;;;;;;;11.50;99.90;;;;;;5139999;27;20319;-64
2023/03/08 05:16:18;;;;;;;;;;;11.50;99.90;;;;;;5140265;27;19907;-63
2023/03/08 05:18:44;;;;;;;;;;;11.50;99.90;;;;;;5139701;27;19914;-63
2023/03/08 05:21:10;;;;;;;;;;;11.50;99.90;;;;;;5139958;27;19908;-64
2023/03/08 05:23:36;;;;;;;;;;;11.40;99.90;;;;;;5140381;27;19908;-63
2023/03/08 05:26:03;;;;;;;;;;;11.40;99.90;;;;;;5140655;27;19908;-63
2023/03/08 05:28:29;;;;;;;;;;;11.40;99.90;;;;;;5140012;27;19996;-64
2023/03/08 05:31:04;;;;;;;;;;;11.40;99.90;;;;;;5140774;27;19908;-64
2023/03/08 05:33:30;;;;;;;;;;;11.40;99.90;;;;;;5139701;27;19911;-63
2023/03/08 05:35:56;;;;;;;;;;;11.30;99.90;;;;;;5139942;27;19947;-64
2023/03/08 05:38:22;;;;;;;;;;;11.30;99.90;;;;;;5139712;27;20002;-63
2023/03/08 05:40:48;;;;;;;;;;;11.20;99.90;;;;;;5140119;27;19939;-63
2023/03/08 05:43:14;;;;;;;;;;;11.20;99.90;;;;;;5139605;27;20335;-64
2023/03/08 05:45:40;;;;;;;;;;;11.20;99.90;;;;;;5139743;27;19908;-64
2023/03/08 05:48:06;;;;;;;;;;;11.10;99.90;;;;;;5139537;27;20491;-63
2023/03/08 05:50:31;;;;;;;;;;;11.10;99.90;;;;;;5139701;27;19908;-63
2023/03/08 05:52:57;;;;;;;;;;;11.10;99.90;;;;;;5139382;27;19945;-64
2023/03/08 05:55:23;;;;;;;;;;;11.10;99.90;;;;;;5139614;27;19908;-64
2023/03/08 05:57:48;;;;;;;;;;;11.10;99.90;;;;;;5139519;27;19911;-64
2023/03/08 06:00:14;;;;;;;;;;;11.10;99.90;;;;;;5139367;27;19908;-64
2023/03/08 06:02:40;;;;;;;;;;;11.10;99.90;;;;;;5139298;27;19957;-63
2023/03/08 06:05:06;;;;;;;;;;;11.10;99.90;;;;;;5140080;27;20310;-64
2023/03/08 06:07:32;;;;;;;;;;;11.10;99.90;;;;;;5139506;27;19914;-64
2023/03/08 06:09:57;;;;;;;;;;;11.10;99.90;;;;;;5139403;27;19907;-63
2023/03/08 06:12:23;;;;;;;;;;;11.10;99.90;;;;;;5139034;27;19919;-63
2023/03/08 06:14:49;;;;;;;;;;;11.10;99.90;;;;;;5139154;27;19908;-63
2023/03/08 06:17:14;;;;;;;;;;;11.20;99.90;;;;;;5139074;27;19915;-63
2023/03/08 06:19:40;;;;;;;;;;;11.20;99.90;;;;;;5139163;27;19911;-63
2023/03/08 06:22:05;;;;;;;;;;;11.30;99.90;;;;;;5139185;27;19908;-63
2023/03/08 06:24:31;;;;;;;;;;;11.30;99.90;;;;;;5139202;27;19914;-64
2023/03/08 06:26:58;;;;;;;;;;;11.20;99.90;;;;;;5139235;27;19933;-63
2023/03/08 06:29:24;;;;;;;;;;;11.30;99.90;;;;;;5138765;27;20396;-63
2023/03/08 06:31:49;;;;;;;;;;;11.30;99.90;;;;;;5138698;27;19994;-64
2023/03/08 06:34:15;;;;;;;;;;;11.20;99.90;;;;;;5139048;27;19912;-63
2023/03/08 06:36:41;;;;;;;;;;;11.20;99.90;;;;;;5138833;28;19953;-63
2023/03/08 06:39:06;;;;;;;;;;;11.10;99.90;;;;;;5138975;28;19919;-64
2023/03/08 06:41:32;;;;;;;;;;;11.10;99.90;;;;;;5138730;28;19957;-63
2023/03/08 06:43:57;;;;;;;;;;;11.10;99.90;;;;;;5120155;28;20286;-63
2023/03/08 06:46:23;;;;;;;;;;;11.10;99.90;;;;;;5138993;28;19942;-63
2023/03/08 06:48:49;;;;;;;;;;;11.10;99.90;;;;;;5139029;28;19929;-64
2023/03/08 06:51:15;;;;;;;;;;;11.00;99.90;;;;;;5138632;28;19907;-63
2023/03/08 06:53:41;;;;;;;;;;;11.00;99.90;;;;;;5138723;28;19918;-64
2023/03/08 06:56:07;;;;;;;;;;;11.00;99.90;;;;;;5138912;28;19907;-64
2023/03/08 06:58:33;;;;;;;;;;;11.00;99.90;;;;;;5138442;28;19907;-64
2023/03/08 07:00:59;;;;;;;;;;;11.00;99.90;;;;;;5138493;28;20370;-64
2023/03/08 07:03:25;;;;;;;;;;;11.10;99.90;;;;;;5138467;28;19991;-63
2023/03/08 07:05:51;;;;;;;;;;;11.10;99.90;;;;;;5138430;28;20346;-64
2023/03/08 07:08:17;;;;;;;;;;;11.10;99.90;;;;;;5138828;28;20011;-64
2023/03/08 07:10:42;;;;;;;;;;;11.10;99.90;;;;;;5138443;28;20328;-64
2023/03/08 07:13:08;;;;;;;;;;;11.10;99.90;;;;;;5138340;28;19912;-64
2023/03/08 07:15:37;;;;;;;;;;;11.10;99.90;;;;;;5138677;28;19911;-63
2023/03/08 07:18:03;;;;;;;;;;;11.10;99.90;;;;;;5138092;28;19912;-64
2023/03/08 07:20:29;;;;;;;;;;;11.00;99.90;;;;;;5138569;28;19907;-64
2023/03/08 07:22:54;;;;;;;;;;;11.10;99.90;;;;;;5138335;28;19911;-63
2023/03/08 07:25:20;;;;;;;;;;;11.10;99.90;;;;;;5138325;28;19972;-64
2023/03/08 07:27:46;;;;;;;;;;;11.10;99.90;;;;;;5138988;28;19907;-64
2023/03/08 07:30:15;;;;;;;;;;;11.10;99.90;;;;;;5137502;28;19924;-64
2023/03/08 07:32:41;;;;;;;;;;;11.10;99.90;;;;;;5138622;28;19911;-64
2023/03/08 07:35:08;;;;;;;;;;;11.10;99.90;;;;;;5138478;28;19911;-63
2023/03/08 07:37:33;;;;;;;;;;;11.10;99.90;;;;;;5138410;28;19963;-64
2023/03/08 07:39:59;;;;;;;;;;;11.20;99.90;;;;;;5138177;28;20323;-63
2023/03/08 07:42:26;;;;;;;;;;;11.30;99.90;;;;;;5139005;27;19915;-64
2023/03/08 07:44:52;;;;;;;;;;;11.20;99.90;;;;;;5142001;27;19914;-64
2023/03/08 07:47:17;;;;;;;;;;;11.30;99.90;;;;;;5142064;27;19978;-63
2023/03/08 07:49:43;;;;;;;;;;;11.30;99.90;;;;;;5141711;27;19908;-64
2023/03/08 07:52:08;;;;;;;;;;;11.40;99.90;;;;;;5141828;27;19915;-64
2023/03/08 07:54:34;;;;;;;;;;;11.40;99.90;;;;;;5141885;27;19915;-64
2023/03/08 07:57:01;;;;;;;;;;;11.30;99.90;;;;;;5142015;27;19907;-64
2023/03/08 07:59:26;;;;;;;;;;;11.40;99.90;;;;;;5141630;27;20009;-63
2023/03/08 08:01:52;;;;;;;;;;;11.40;99.90;;;;;;5141522;27;19946;-64
2023/03/08 08:04:17;;;;;;;;;;;11.40;99.90;;;;;;5141650;27;19907;-64
2023/03/08 08:06:43;;;;;;;;;;;11.50;99.90;;;;;;5142026;27;20324;-64
2023/03/08 08:09:11;;;;;;;;;;;11.50;99.90;;;;;;5141421;27;19908;-64
2023/03/08 08:11:37;;;;;;;;;;;11.50;99.90;;;;;;5141251;27;19907;-64
2023/03/08 08:14:04;;;;;;;;;;;11.50;99.90;;;;;;5141250;27;19919;-64
2023/03/08 08:16:30;;;;;;;;;;;11.50;99.90;;;;;;5141281;27;19915;-63
2023/03/08 08:18:55;;;;;;;;;;;11.50;99.90;;;;;;5141306;27;19935;-63
2023/03/08 08:21:21;;;;;;;;;;;11.60;99.90;;;;;;5141367;27;19911;-64
2023/03/08 08:23:47;;;;;;;;;;;11.50;99.90;;;;;;5141450;27;19933;-64
2023/03/08 08:26:14;;;;;;;;;;;11.50;99.90;;;;;;5122378;27;19930;-63
2023/03/08 08:28:40;;;;;;;;;;;11.60;99.90;;;;;;5140996;27;19915;-64
2023/03/08 08:31:08;;;;;;;;;;;11.60;99.90;;;;;;5140861;27;19995;-63
2023/03/08 08:33:34;;;;;;;;;;;11.70;99.90;;;;;;5141173;27;19911;-64
2023/03/08 08:36:01;;;;;;;;;;;11.70;99.90;;;;;;5140998;27;19908;-63
2023/03/08 08:38:27;;;;;;;;;;;12.00;99.90;;;;;;5140590;27;20076;-63
2023/03/08 08:40:53;;;;;;;;;;;11.70;99.90;;;;;;5140758;27;19947;-64
2023/03/08 08:43:18;;;;;;;;;;;11.80;99.90;;;;;;5123054;27;19912;-63
2023/03/08 08:45:48;;;;;;;;;;;11.80;99.90;;;;;;5140839;27;19909;-63
2023/03/08 08:48:14;;;;;;;;;;;11.90;99.90;;;;;;5140841;27;19907;-63
2023/03/08 08:50:40;;;;;;;;;;;12.10;99.90;;;;;;5140657;27;19911;-63
2023/03/08 08:53:07;;;;;;;;;;;12.10;99.90;;;;;;5140534;27;19912;-63
2023/03/08 08:55:32;;;;;;;;;;;12.20;99.90;;;;;;5140760;27;19907;-63
2023/03/08 08:57:58;;;;;;;;;;;12.20;99.90;;;;;;5140707;27;19908;-63
2023/03/08 09:00:24;;;;;;;;;;;12.30;99.90;;;;;;5140397;27;19908;-63
2023/03/08 09:02:49;;;;;;;;;;;12.30;99.90;;;;;;5140751;27;19907;-63
2023/03/08 09:05:15;;;;;;;;;;;12.30;99.90;;;;;;5140649;27;20409;-63
2023/03/08 09:07:41;;;;;;;;;;;12.40;99.90;;;;;;5140214;27;19915;-63
2023/03/08 09:10:07;;;;;;;;;;;12.40;99.90;;;;;;5140205;27;19916;-63
2023/03/08 09:12:33;;;;;;;;;;;12.40;99.90;;;;;;5140089;27;19911;-63
2023/03/08 09:14:58;;;;;;;;;;;12.50;99.90;;;;;;5140416;27;19914;-63
2023/03/08 09:17:24;;;;;;;;;;;12.50;99.90;;;;;;5121609;27;20259;-63
2023/03/08 09:19:50;;;;;;;;;;;12.40;99.90;;;;;;5140403;27;20334;-63
2023/03/08 09:22:16;;;;;;;;;;;12.50;99.90;;;;;;5140013;27;19914;-63
2023/03/08 09:24:41;;;;;;;;;;;12.50;99.90;;;;;;5140453;27;19915;-63
2023/03/08 09:27:07;;;;;;;;;;;12.40;99.90;;;;;;5139821;27;20297;-63
2023/03/08 09:29:33;;;;;;;;;;;12.40;99.90;;;;;;5139922;27;19919;-63
2023/03/08 09:31:59;;;;;;;;;;;12.30;99.90;;;;;;5139950;27;20002;-63
2023/03/08 09:34:26;;;;;;;;;;;12.20;99.90;;;;;;5139457;27;19969;-63
2023/03/08 09:36:52;;;;;;;;;;;12.20;99.90;;;;;;5121203;27;19907;-63
2023/03/08 09:39:17;;;;;;;;;;;12.10;99.90;;;;;;5139864;27;19915;-63
2023/03/08 09:41:43;;;;;;;;;;;12.10;99.90;;;;;;5139703;27;19907;-63
2023/03/08 09:44:15;;;;;;;;;;;12.10;99.90;;;;;;5139371;27;19994;-63
2023/03/08 09:46:45;;;;;;;;;;;12.00;99.90;;;;;;5139298;27;19946;-63
2023/03/08 09:49:30;;;;;;;;;;;12.10;99.90;;;;;;5139854;27;19907;-63
2023/03/08 09:52:02;;;;;;;;;;;12.10;99.90;;;;;;5139149;27;19908;-63
2023/03/08 09:54:28;;;;;;;;;;;12.10;99.90;;;;;;5139301;27;19990;-63
2023/03/08 09:56:55;;;;;;;;;;;12.10;99.90;;;;;;5139492;27;19950;-63
2023/03/08 09:59:29;;;;;;;;;;;12.10;99.90;;;;;;5139170;27;19908;-63
2023/03/08 10:01:58;;;;;;;;;;;12.10;99.90;;;;;;5139275;27;19914;-63
2023/03/08 10:04:23;;;;;;;;;;;12.00;99.90;;;;;;5120688;27;19908;-63
2023/03/08 10:07:02;;;;;;;;;;;12.00;99.90;;;;;;5138704;27;19908;-63
2023/03/08 10:09:35;;;;;;;;;;;11.90;99.90;;;;;;5139385;27;19907;-63
2023/03/08 10:12:18;;;;;;;;;;;12.00;99.90;;;;;;5139186;27;19914;-63
2023/03/08 10:14:55;;;;;;;;;;;11.90;99.90;;;;;;5139157;27;19911;-63
2023/03/08 10:17:23;;;;;;;;;;;11.90;99.90;;;;;;5139099;27;19911;-63
2023/03/08 10:19:52;;;;;;;;;;;11.80;99.90;;;;;;5139117;27;20327;-63
2023/03/08 10:22:23;;;;;;;;;;;11.90;99.90;;;;;;5138933;27;19919;-63
2023/03/08 10:24:53;;;;;;;;;;;11.90;99.90;;;;;;5138953;27;19907;-63
2023/03/08 10:27:20;;;;;;;;;;;11.90;99.90;;;;;;5138839;27;19908;-63
2023/03/08 10:29:47;;;;;;;;;;;11.90;99.90;;;;;;5138760;27;19959;-63
2023/03/08 10:32:12;;;;;;;;;;;11.80;99.90;;;;;;5138987;27;19939;-63
2023/03/08 10:34:38;;;;;;;;;;;11.80;99.90;;;;;;5138695;27;19940;-63
2023/03/08 10:37:08;;;;;;;;;;;11.80;99.90;;;;;;5139133;28;20006;-63
2023/03/08 10:39:34;;;;;;;;;;;11.80;99.90;;;;;;5139005;28;19914;-63
2023/03/08 10:42:01;;;;;;;;;;;11.80;99.90;;;;;;5138778;28;20006;-63
2023/03/08 10:44:32;;;;;;;;;;;11.80;99.90;;;;;;5139042;28;20383;-63
2023/03/08 10:46:58;;;;;;;;;;;11.90;99.90;;;;;;5138945;28;19913;-63
2023/03/08 10:49:24;;;;;;;;;;;11.80;99.90;;;;;;5138316;28;19986;-63
2023/03/08 10:52:00;;;;;;;;;;;11.80;99.90;;;;;;5138713;28;20378;-63
2023/03/08 10:54:26;;;;;;;;;;;11.80;99.90;;;;;;5138380;28;19944;-63
2023/03/08 10:56:52;;;;;;;;;;;11.90;99.90;;;;;;5138790;28;19911;-63
2023/03/08 10:59:36;;;;;;;;;;;11.80;99.90;;;;;;5138711;28;19988;-63
2023/03/08 11:02:02;;;;;;;;;;;11.90;99.90;;;;;;5138340;28;19908;-63
2023/03/08 11:04:28;;;;;;;;;;;11.90;99.90;;;;;;5138535;28;20052;-63
2023/03/08 11:06:54;;;;;;;;;;;11.90;99.90;;;;;;5138585;28;19908;-63
2023/03/08 11:09:30;;;;;;;;;;;11.80;99.90;;;;;;5138430;28;20374;-63
2023/03/08 11:11:56;;;;;;;;;;;11.80;99.90;;;;;;5138634;28;19908;-63
2023/03/08 11:14:23;;;;;;;;;;;11.70;99.90;;;;;;5138226;28;19961;-63
2023/03/08 11:16:50;;;;;;;;;;;11.80;99.90;;;;;;5138504;27;20339;-63
2023/03/08 11:19:34;;;;;;;;;;;11.80;99.90;;;;;;5142035;27;20402;-63
2023/03/08 11:22:15;;;;;;;;;;;11.90;99.90;;;;;;5142171;27;19908;-63
2023/03/08 11:24:49;;;;;;;;;;;11.90;99.90;;;;;;5142213;27;19914;-63
2023/03/08 11:27:26;;;;;;;;;;;12.10;99.90;;;;;;5142547;27;20346;-63
2023/03/08 11:29:53;;;;;;;;;;;12.10;99.90;;;;;;5142006;27;20343;-63
2023/03/08 11:32:37;;;;;;;;;;;12.20;99.90;;;;;;5142167;27;19911;-63
2023/03/08 11:35:13;;;;;;;;;;;12.30;99.90;;;;;;5141848;27;20373;-63
2023/03/08 11:37:49;;;;;;;;;;;12.30;99.90;;;;;;5123629;27;19908;-63
2023/03/08 11:40:24;;;;;;;;;;;12.20;99.90;;;;;;5142181;27;19907;-63
2023/03/08 11:42:59;;;;;;;;;;;12.30;99.90;;;;;;5141880;27;20471;-63
2023/03/08 11:45:42;;;;;;;;;;;12.70;99.90;;;;;;5142151;27;19907;-63
2023/03/08 11:48:27;;;;;;;;;;;13.60;99.90;;;;;;5142045;27;19915;-63
2023/03/08 11:50:59;;;;;;;;;;;13.90;99.90;;;;;;5141837;27;20297;-63
2023/03/08 11:53:39;;;;;;;;;;;13.80;99.90;;;;;;5141869;27;19950;-63
2023/03/08 11:56:25;;;;;;;;;;;13.60;99.90;;;;;;5123246;27;19907;-63
2023/03/08 11:58:57;;;;;;;;;;;13.50;99.90;;;;;;5141646;27;19907;-63
2023/03/08 12:01:25;;;;;;;;;;;13.50;99.90;;;;;;5141763;27;20370;-64
2023/03/08 12:03:52;;;;;;;;;;;13.80;99.90;;;;;;5141462;27;19996;-63
2023/03/08 12:06:18;;;;;;;;;;;13.90;99.90;;;;;;5141948;27;19960;-64
2023/03/08 12:08:53;;;;;;;;;;;14.20;99.90;;;;;;5122901;27;20331;-64
2023/03/08 12:11:25;;;;;;;;;;;14.10;99.90;;;;;;5141726;27;19987;-64
2023/03/08 12:14:04;;;;;;;;;;;14.30;99.90;;;;;;5141342;27;20410;-64
2023/03/08 12:16:39;;;;;;;;;;;14.50;99.90;;;;;;5141165;27;19947;-64
2023/03/08 12:19:07;;;;;;;;;;;14.70;99.90;;;;;;5141383;27;19999;-64
2023/03/08 12:21:33;;;;;;;;;;;14.80;99.90;;;;;;5141185;27;20282;-64
2023/03/08 12:24:08;;;;;;;;;;;15.00;99.90;;;;;;5141343;27;19912;-64
2023/03/08 12:26:36;;;;;;;;;;;15.70;99.90;;;;;;5141094;27;19957;-64
2023/03/08 12:29:04;;;;;;;;;;;16.10;99.90;;;;;;5140539;27;19941;-64
2023/03/08 12:31:33;;;;;;;;;;;16.60;99.90;;;;;;5141027;27;19963;-64
2023/03/08 12:33:59;;;;;;;;;;;16.60;99.90;;;;;;5140690;27;20006;-64
2023/03/08 12:36:57;;;;;;;;;;;16.80;99.90;;;;;;5141007;27;19908;-64
2023/03/08 12:39:25;;;;;;;;;;;16.90;99.90;;;;;;5095179;27;19908;-64
2023/03/08 12:42:01;;;;;;;;;;;17.20;99.90;;;;;;5140688;27;20290;-64
2023/03/08 12:44:28;;;;;;;;;;;17.50;99.90;;;;;;5140753;27;19929;-64
2023/03/08 12:46:56;;;;;;;;;;;17.30;99.90;;;;;;5140869;27;19907;-64
2023/03/08 12:49:25;;;;;;;;;;;16.90;99.90;;;;;;5140509;27;19960;-64
2023/03/08 12:51:58;;;;;;;;;;;16.50;99.90;;;;;;5140699;27;19915;-64
2023/03/08 12:54:26;;;;;;;;;;;16.30;99.90;;;;;;5140807;27;19911;-64
2023/03/08 12:56:54;;;;;;;;;;;16.30;99.90;;;;;;5140786;27;19915;-64
2023/03/08 12:59:19;;;;;;;;;;;16.10;99.90;;;;;;5140659;27;19951;-64
2023/03/08 13:01:46;;;;;;;;;;;16.10;99.90;;;;;;5140374;27;19908;-64
2023/03/08 13:04:29;;;;;;;;;;;15.80;99.90;;;;;;5140430;27;20010;-63
2023/03/08 13:06:54;;;;;;;;;;;15.70;99.90;;;;;;5140241;27;19911;-64
2023/03/08 13:09:29;;;;;;;;;;;15.40;99.90;;;;;;5140444;27;19915;-64
2023/03/08 13:12:01;;;;;;;;;;;15.00;99.90;;;;;;5140126;27;19908;-64
2023/03/08 13:14:37;;;;;;;;;;;14.90;99.90;;;;;;5140300;27;19911;-63
2023/03/08 13:17:22;;;;;;;;;;;14.80;99.90;;;;;;5140552;27;19907;-63
2023/03/08 13:19:48;;;;;;;;;;;14.70;99.90;;;;;;5139747;27;19908;-64
2023/03/08 13:22:34;;;;;;;;;;;14.60;99.90;;;;;;5140477;27;19907;-63
2023/03/08 13:25:19;;;;;;;;;;;14.80;99.90;;;;;;5139042;27;20290;-63
2023/03/08 13:27:51;;;;;;;;;;;14.80;99.90;;;;;;5121281;27;19907;-63
2023/03/08 13:30:26;;;;;;;;;;;14.60;99.90;;;;;;5139429;27;20003;-63
2023/03/08 13:32:51;;;;;;;;;;;14.30;99.90;;;;;;5139868;27;19911;-64
2023/03/08 13:35:21;;;;;;;;;;;14.40;99.90;;;;;;5138702;27;20363;-64
2023/03/08 13:37:54;;;;;;;;;;;14.30;99.90;;;;;;5139430;27;19913;-63
2023/03/08 13:40:20;;;;;;;;;;;14.40;99.90;;;;;;5138924;27;19911;-63
2023/03/08 13:42:53;;;;;;;;;;;14.50;99.90;;;;;;5139550;27;20303;-63
2023/03/08 13:45:18;;;;;;;;;;;14.40;99.90;;;;;;5139556;27;19968;-63
2023/03/08 13:47:44;;;;;;;;;;;14.60;99.90;;;;;;5139565;27;19908;-63
2023/03/08 13:50:16;;;;;;;;;;;14.70;99.90;;;;;;5139664;27;19908;-63
2023/03/08 13:52:42;;;;;;;;;;;14.80;99.90;;;;;;5139531;27;19911;-63
2023/03/08 13:55:14;;;;;;;;;;;14.70;99.90;;;;;;5139191;27;19992;-63
2023/03/08 13:57:41;;;;;;;;;;;14.60;99.90;;;;;;5139472;27;19914;-63
2023/03/08 14:00:22;;;;;;;;;;;14.40;99.90;;;;;;5120569;27;19914;-63
2023/03/08 14:02:48;;;;;;;;;;;14.30;99.90;;;;;;5139359;27;19911;-64
2023/03/08 14:05:15;;;;;;;;;;;14.10;99.90;;;;;;5139209;27;19908;-64
2023/03/08 14:07:41;;;;;;;;;;;13.90;99.90;;;;;;5139332;27;19907;-64
2023/03/08 14:10:12;;;;;;;;;;;13.70;99.90;;;;;;5139298;27;19960;-64
2023/03/08 14:12:37;;;;;;;;;;;13.60;99.90;;;;;;5139177;27;19914;-63
2023/03/08 14:15:04;;;;;;;;;;;13.60;99.90;;;;;;5120518;27;19907;-63
2023/03/08 14:17:32;;;;;;;;;;;13.40;99.90;;;;;;5139406;27;20006;-63
2023/03/08 14:20:13;;;;;;;;;;;13.40;99.90;;;;;;5138665;27;19983;-63